Mons, Belgium
Current Conditions -  °F | °C
As of 3:21 PM on Thursday 29 Jan 2015 (Local Time) from EBCV Reporting Station
Broken Clouds Broken Clouds  
Wind Chill: 30°   Ceiling: 3400
Heat Index: 39°   Visibility: 6mi
Dew Point: 36°   Wind: 16mph
Humidity: 87%   Direction: 220°SW
Pressure: 29.06"   Gusts: NA
Location:  50.45°N, 3.97°E
Report Text: EBCV 291421Z AUTO 22014KT 9999 FEW010/// SCT014/// BKN034/// 04/02 Q0984 GRN
Loading
Personal Weather Stations






























Interactive Weather Map New forecast layout! Learn more

10-Day Weather Forecast

Advertisements
Track Severe Weather on mobile